Time;durP1;ratioP1;P1;durP2;ratioP2;P2;SDS_P1;SDS_P2;PMS_P1;PMS_P2;Temp;Humidity;BMP_temperature;BMP_pressure;BME280_temperature;BME280_humidity;BME280_pressure;Samples;Min_cycle;Max_cycle;Signal;HPM_P1;HPM_P2
2022/08/19 00:00:07;;;;;;;29.83;23.33;;;20.00;99.90;;;;;;5110758;27;20067;-64
2022/08/19 00:02:36;;;;;;;31.90;24.88;;;20.00;99.90;;;;;;5122245;27;20086;-64
2022/08/19 00:05:17;;;;;;;29.40;25.35;;;19.90;99.90;;;;;;5111478;27;20521;-65
2022/08/19 00:07:45;;;;;;;29.23;25.67;;;19.90;99.90;;;;;;5100146;27;20807;-65
2022/08/19 00:10:15;;;;;;;27.30;23.15;;;19.80;99.90;;;;;;5110932;27;20070;-64
2022/08/19 00:12:42;;;;;;;30.50;25.13;;;19.80;99.90;;;;;;5101380;27;20109;-65
2022/08/19 00:15:16;;;;;;;28.00;24.90;;;19.80;99.90;;;;;;5099098;27;20051;-65
2022/08/19 00:17:44;;;;;;;31.50;25.52;;;19.80;99.90;;;;;;5110307;27;20428;-66
2022/08/19 00:20:16;;;;;;;33.30;25.30;;;19.80;99.90;;;;;;5098760;27;20112;-65
2022/08/19 00:22:45;;;;;;;26.05;22.20;;;19.70;99.90;;;;;;5110606;27;20043;-66
2022/08/19 00:25:13;;;;;;;29.80;24.70;;;19.80;99.90;;;;;;5104946;28;20047;-65
2022/08/19 00:27:41;;;;;;;30.98;25.90;;;19.70;99.90;;;;;;5122573;27;20055;-66
2022/08/19 00:30:11;;;;;;;32.28;25.83;;;19.70;99.90;;;;;;5110122;27;20060;-66
2022/08/19 00:32:40;;;;;;;33.80;27.15;;;19.70;99.90;;;;;;5123696;27;20096;-66
2022/08/19 00:35:09;;;;;;;32.95;25.23;;;19.70;99.90;;;;;;5109641;27;20094;-64
2022/08/19 00:37:45;;;;;;;33.67;26.08;;;19.60;99.90;;;;;;5129283;27;20047;-64
2022/08/19 00:40:14;;;;;;;32.33;26.70;;;19.60;99.90;;;;;;5110685;27;20040;-64
2022/08/19 00:42:41;;;;;;;34.78;27.85;;;19.60;99.90;;;;;;5127426;27;20043;-64
2022/08/19 00:45:12;;;;;;;32.42;26.75;;;19.60;99.90;;;;;;5123329;27;20046;-64
2022/08/19 00:47:39;;;;;;;30.88;27.08;;;19.50;99.90;;;;;;5112392;27;20478;-64
2022/08/19 00:50:09;;;;;;;35.22;27.30;;;19.60;99.90;;;;;;5118156;27;20052;-64
2022/08/19 00:52:44;;;;;;;34.78;26.65;;;19.70;99.90;;;;;;5104222;27;20070;-64
2022/08/19 00:55:24;;;;;;;31.08;27.10;;;19.70;99.90;;;;;;5100212;27;20048;-67
2022/08/19 00:58:27;;;;;;;29.98;24.25;;;19.80;99.90;;;;;;5097996;27;20572;-64
2022/08/19 01:00:54;;;;;;;29.38;26.02;;;19.80;99.90;;;;;;5090860;27;20035;-64
2022/08/19 01:03:23;;;;;;;34.17;26.67;;;19.80;99.90;;;;;;5102693;27;20506;-65
2022/08/19 01:05:53;;;;;;;31.27;25.17;;;19.80;99.90;;;;;;5106350;27;20082;-65
2022/08/19 01:08:21;;;;;;;28.58;24.83;;;19.80;99.90;;;;;;5109096;27;20397;-65
2022/08/19 01:10:55;;;;;;;33.40;28.80;;;19.90;99.90;;;;;;5108063;27;20063;-65
2022/08/19 01:13:26;;;;;;;32.08;26.95;;;19.90;99.90;;;;;;5110786;27;20051;-66
2022/08/19 01:16:03;;;;;;;30.90;26.27;;;19.90;99.90;;;;;;5108735;27;20447;-64
2022/08/19 01:18:35;;;;;;;33.38;27.40;;;20.00;99.90;;;;;;5119709;27;20043;-65
2022/08/19 01:21:21;;;;;;;30.77;25.73;;;19.90;99.90;;;;;;5116764;27;20046;-64
2022/08/19 01:23:49;;;;;;;33.83;26.15;;;19.90;99.90;;;;;;5114830;27;20103;-64
2022/08/19 01:26:21;;;;;;;31.75;27.33;;;19.90;99.90;;;;;;5117093;27;20104;-65
2022/08/19 01:28:52;;;;;;;31.73;25.67;;;19.90;99.90;;;;;;5115709;27;20565;-65
2022/08/19 01:31:25;;;;;;;32.28;27.77;;;20.00;99.90;;;;;;5116555;27;20415;-64
2022/08/19 01:33:56;;;;;;;34.20;27.42;;;20.00;99.90;;;;;;5115131;27;20047;-65
2022/08/19 01:36:27;;;;;;;30.63;25.92;;;20.00;99.90;;;;;;5125766;27;20054;-65
2022/08/19 01:38:55;;;;;;;30.58;26.10;;;20.00;99.90;;;;;;5116054;27;20422;-64
2022/08/19 01:41:23;;;;;;;33.08;28.10;;;19.90;99.90;;;;;;5119552;27;20134;-65
2022/08/19 01:43:52;;;;;;;33.28;27.42;;;19.90;99.90;;;;;;5126940;27;20039;-64
2022/08/19 01:46:40;;;;;;;33.20;28.45;;;19.90;99.90;;;;;;5117250;27;20067;-65
2022/08/19 01:49:08;;;;;;;35.63;27.95;;;19.90;99.90;;;;;;5109581;27;20050;-64
2022/08/19 01:51:37;;;;;;;33.15;26.35;;;19.90;99.90;;;;;;5099046;28;20457;-64
2022/08/19 01:54:11;;;;;;;34.22;28.48;;;19.90;99.90;;;;;;5110055;27;20496;-64
2022/08/19 01:56:38;;;;;;;35.22;27.85;;;19.90;99.90;;;;;;5103050;27;20146;-64
2022/08/19 01:59:14;;;;;;;36.80;28.70;;;19.90;99.90;;;;;;5109782;27;20036;-64
2022/08/19 02:01:41;;;;;;;31.17;25.75;;;19.80;99.90;;;;;;5108675;27;20067;-64
2022/08/19 02:04:09;;;;;;;30.52;25.45;;;19.80;99.90;;;;;;5102323;27;20529;-64
2022/08/19 02:06:36;;;;;;;36.03;29.10;;;19.80;99.90;;;;;;5089169;27;20051;-64
2022/08/19 02:09:06;;;;;;;34.50;29.08;;;19.80;99.90;;;;;;5103319;27;20490;-64
2022/08/19 02:11:35;;;;;;;34.03;29.08;;;19.80;99.90;;;;;;5114678;27;20151;-64
2022/08/19 02:14:05;;;;;;;34.67;29.85;;;19.80;99.90;;;;;;5101019;27;20097;-64
2022/08/19 02:16:35;;;;;;;33.50;28.23;;;19.80;99.90;;;;;;5110434;27;20062;-64
2022/08/19 02:19:03;;;;;;;34.22;27.27;;;19.70;99.90;;;;;;5107509;27;20043;-64
2022/08/19 02:21:30;;;;;;;34.95;28.40;;;19.80;99.90;;;;;;5101944;27;20515;-64
2022/08/19 02:23:58;;;;;;;31.38;27.05;;;19.80;99.90;;;;;;5109309;27;20121;-64
2022/08/19 02:26:26;;;;;;;35.83;27.50;;;19.70;99.90;;;;;;5100454;27;20035;-64
2022/08/19 02:28:54;;;;;;;34.40;28.30;;;19.80;99.90;;;;;;5102439;28;20044;-64
2022/08/19 02:31:24;;;;;;;34.28;28.52;;;19.80;99.90;;;;;;5093032;27;20047;-64
2022/08/19 02:33:52;;;;;;;37.53;29.63;;;19.80;99.90;;;;;;5106476;27;20475;-65
2022/08/19 02:36:24;;;;;;;36.47;28.90;;;19.70;99.90;;;;;;5109217;28;20056;-64
2022/08/19 02:38:52;;;;;;;35.58;29.15;;;19.80;99.90;;;;;;5104369;27;20145;-65
2022/08/19 02:41:25;;;;;;;33.08;27.75;;;19.80;99.90;;;;;;5100949;27;20043;-65
2022/08/19 02:43:57;;;;;;;35.20;28.05;;;19.80;99.90;;;;;;5107193;27;20350;-64
2022/08/19 02:46:47;;;;;;;38.72;30.27;;;19.80;99.90;;;;;;5104384;27;20044;-65
2022/08/19 02:49:16;;;;;;;37.67;29.38;;;19.80;99.90;;;;;;5109252;27;20052;-65
2022/08/19 02:51:45;;;;;;;36.78;28.65;;;19.80;99.90;;;;;;5100374;27;20462;-65
2022/08/19 02:54:14;;;;;;;37.22;28.75;;;19.90;99.90;;;;;;5112207;27;20068;-65
2022/08/19 02:56:43;;;;;;;35.08;28.13;;;19.90;99.90;;;;;;5100623;27;20073;-65
2022/08/19 02:59:11;;;;;;;39.13;29.63;;;19.90;99.90;;;;;;5114149;27;20065;-65
2022/08/19 03:01:41;;;;;;;31.95;25.52;;;19.90;99.90;;;;;;5105549;27;20036;-65
2022/08/19 03:04:11;;;;;;;34.72;28.25;;;19.90;99.90;;;;;;5109285;27;20417;-65
2022/08/19 03:06:41;;;;;;;33.92;27.95;;;19.90;99.90;;;;;;5113006;27;20039;-65
2022/08/19 03:09:08;;;;;;;36.13;28.15;;;20.00;99.90;;;;;;5114275;27;20490;-64
2022/08/19 03:11:37;;;;;;;34.17;28.42;;;20.00;99.90;;;;;;5113705;28;20043;-65
2022/08/19 03:14:07;;;;;;;33.60;26.85;;;20.00;99.90;;;;;;5115420;27;20521;-64
2022/08/19 03:16:44;;;;;;;41.00;30.63;;;20.00;99.90;;;;;;5109628;28;20120;-65
2022/08/19 03:19:12;;;;;;;35.50;29.40;;;20.00;99.90;;;;;;5106142;28;20035;-65
2022/08/19 03:21:42;;;;;;;38.35;29.27;;;20.00;99.90;;;;;;5114654;27;20051;-65
2022/08/19 03:24:09;;;;;;;38.05;28.88;;;20.00;99.90;;;;;;5105949;27;20439;-65
2022/08/19 03:26:42;;;;;;;34.60;27.65;;;19.90;99.90;;;;;;5115448;28;20126;-67
2022/08/19 03:29:10;;;;;;;44.47;32.08;;;19.90;99.90;;;;;;5105242;28;20511;-65
2022/08/19 03:31:40;;;;;;;40.83;31.88;;;19.90;99.90;;;;;;5117824;27;20048;-64
2022/08/19 03:34:28;;;;;;;39.42;30.50;;;19.90;99.90;;;;;;5114870;27;20047;-65
2022/08/19 03:37:02;;;;;;;42.28;32.78;;;19.90;99.90;;;;;;5109903;27;20059;-65
2022/08/19 03:39:29;;;;;;;40.42;31.73;;;19.80;99.90;;;;;;5112993;27;20501;-65
2022/08/19 03:41:59;;;;;;;44.28;33.45;;;19.70;99.90;;;;;;5116985;28;20114;-65
2022/08/19 03:44:47;;;;;;;43.63;34.15;;;19.70;99.90;;;;;;5122575;28;20398;-66
2022/08/19 03:47:15;;;;;;;45.55;34.30;;;19.70;99.90;;;;;;5125751;27;20122;-65
2022/08/19 03:49:43;;;;;;;47.15;36.33;;;19.60;99.90;;;;;;5114964;28;20056;-65
2022/08/19 03:52:10;;;;;;;48.72;33.42;;;19.60;99.90;;;;;;5093580;27;20079;-65
2022/08/19 03:54:39;;;;;;;44.92;34.38;;;19.60;99.90;;;;;;5112211;27;20127;-65
2022/08/19 03:57:07;;;;;;;46.22;34.35;;;19.60;99.90;;;;;;5099239;28;20485;-65
2022/08/19 03:59:37;;;;;;;43.83;33.95;;;19.60;99.90;;;;;;5104977;28;20497;-65
2022/08/19 04:02:11;;;;;;;46.22;33.78;;;19.60;99.90;;;;;;5106988;28;20042;-65
2022/08/19 04:04:41;;;;;;;46.65;34.30;;;19.60;99.90;;;;;;5106713;28;20048;-65
2022/08/19 04:07:10;;;;;;;44.78;34.15;;;19.60;99.90;;;;;;5104947;28;20138;-67
2022/08/19 04:09:37;;;;;;;46.85;33.97;;;19.60;99.90;;;;;;5119076;28;20073;-65
2022/08/19 04:12:05;;;;;;;47.33;33.88;;;19.60;99.90;;;;;;5116631;28;20072;-65
2022/08/19 04:14:33;;;;;;;47.63;34.03;;;19.60;99.90;;;;;;5109468;28;20412;-65
2022/08/19 04:17:04;;;;;;;50.03;35.17;;;19.50;99.90;;;;;;5119957;27;20035;-65
2022/08/19 04:19:34;;;;;;;46.58;34.45;;;19.50;99.90;;;;;;5113736;27;20479;-65
2022/08/19 04:22:02;;;;;;;47.15;34.30;;;19.50;99.90;;;;;;5126677;27;20096;-65
2022/08/19 04:24:30;;;;;;;48.92;34.78;;;19.50;99.90;;;;;;5119951;27;20067;-65
2022/08/19 04:27:00;;;;;;;43.58;32.50;;;19.50;99.90;;;;;;5115537;27;20034;-65
2022/08/19 04:29:29;;;;;;;43.85;33.63;;;19.50;99.90;;;;;;5094011;27;20055;-65
2022/08/19 04:31:58;;;;;;;43.95;32.83;;;19.50;99.90;;;;;;5115106;27;20558;-65
2022/08/19 04:34:29;;;;;;;45.08;32.35;;;19.60;99.90;;;;;;5121302;27;20084;-65
2022/08/19 04:36:58;;;;;;;44.03;32.60;;;19.50;99.90;;;;;;5126928;27;20117;-65
2022/08/19 04:45:13;;;;;;;41.28;30.30;;;19.70;99.90;;;;;;5111603;27;20568;-65
2022/08/19 04:47:43;;;;;;;38.40;28.80;;;19.80;99.90;;;;;;5109544;27;20122;-64
2022/08/19 04:50:14;;;;;;;41.03;30.92;;;19.80;99.90;;;;;;5103875;27;20051;-65
2022/08/19 04:52:44;;;;;;;40.97;30.45;;;19.80;99.90;;;;;;5118088;27;20523;-66
2022/08/19 04:55:13;;;;;;;40.38;30.58;;;19.80;99.90;;;;;;5120996;27;20056;-65
2022/08/19 04:57:41;;;;;;;40.40;31.10;;;19.90;99.90;;;;;;5113798;27;20116;-66
2022/08/19 05:00:09;;;;;;;40.25;31.70;;;19.90;99.90;;;;;;5108663;28;20135;-65
2022/08/19 05:02:38;;;;;;;38.92;29.90;;;20.00;99.90;;;;;;5111067;27;20059;-65
2022/08/19 05:05:06;;;;;;;41.85;30.88;;;20.00;99.90;;;;;;5097995;27;20071;-65
2022/08/19 05:07:33;;;;;;;39.05;29.80;;;20.10;99.90;;;;;;5111328;27;20050;-65
2022/08/19 05:10:01;;;;;;;44.63;31.77;;;20.10;99.90;;;;;;5114637;27;20051;-65
2022/08/19 05:12:29;;;;;;;41.40;31.38;;;20.10;99.90;;;;;;5114987;27;20051;-66
2022/08/19 05:14:57;;;;;;;45.13;31.02;;;20.00;99.90;;;;;;5116917;27;20511;-64
2022/08/19 05:17:26;;;;;;;41.95;29.67;;;20.00;99.90;;;;;;5116404;27;20055;-65
2022/08/19 05:22:46;;;;;;;39.50;29.50;;;20.00;99.90;;;;;;5098766;27;20043;-65
2022/08/19 05:25:18;;;;;;;42.92;31.38;;;20.10;99.90;;;;;;5115297;27;20054;-64
2022/08/19 05:27:46;;;;;;;43.83;32.28;;;20.20;99.90;;;;;;5101295;27;20044;-65
2022/08/19 05:30:15;;;;;;;39.40;30.58;;;20.20;99.90;;;;;;5114965;27;20051;-64
2022/08/19 05:32:42;;;;;;;38.92;30.17;;;20.20;99.90;;;;;;5120513;27;20508;-64
2022/08/19 05:35:11;;;;;;;41.85;30.88;;;20.20;99.90;;;;;;5122150;27;20112;-64
2022/08/19 05:37:39;;;;;;;38.53;29.20;;;20.40;99.90;;;;;;5102155;27;20498;-64
2022/08/19 05:40:09;;;;;;;39.50;29.77;;;20.40;99.90;;;;;;5104465;27;20044;-64
2022/08/19 05:42:37;;;;;;;36.88;28.35;;;20.50;99.90;;;;;;5104803;27;20202;-65
2022/08/19 05:45:05;;;;;;;39.92;30.45;;;20.50;99.90;;;;;;5103767;27;20676;-64
2022/08/19 05:47:32;;;;;;;39.28;29.98;;;20.60;99.90;;;;;;5105179;27;20105;-64
2022/08/19 05:50:01;;;;;;;36.97;28.77;;;20.70;99.90;;;;;;5100722;27;20146;-64
2022/08/19 05:52:31;;;;;;;37.60;28.13;;;20.70;99.90;;;;;;5107926;27;20130;-64
2022/08/19 05:54:59;;;;;;;35.95;27.42;;;20.70;99.90;;;;;;5109647;27;20042;-64
2022/08/19 05:57:28;;;;;;;35.20;26.73;;;20.90;99.90;;;;;;5119189;27;20493;-64
2022/08/19 05:59:57;;;;;;;39.50;27.27;;;21.00;99.90;;;;;;5110488;27;20036;-64
2022/08/19 06:02:26;;;;;;;34.88;28.45;;;21.10;99.90;;;;;;5113285;27;20066;-64
2022/08/19 06:04:53;;;;;;;31.52;25.27;;;21.20;99.90;;;;;;5096848;27;20039;-64
2022/08/19 06:07:21;;;;;;;38.33;28.00;;;21.30;99.90;;;;;;5113076;27;20484;-64
2022/08/19 06:09:48;;;;;;;34.47;27.08;;;21.50;99.90;;;;;;5101300;27;20040;-64
2022/08/19 06:12:31;;;;;;;33.78;27.33;;;21.40;99.90;;;;;;5106706;27;20051;-64
2022/08/19 06:15:04;;;;;;;31.42;23.98;;;21.60;99.90;;;;;;5106536;27;20092;-64
2022/08/19 06:17:31;;;;;;;28.05;23.73;;;21.80;99.90;;;;;;5102997;27;20048;-64
2022/08/19 06:19:59;;;;;;;27.77;22.92;;;21.80;99.90;;;;;;5105220;27;20448;-64
2022/08/19 06:22:28;;;;;;;29.77;24.50;;;21.90;99.90;;;;;;5105658;27;20055;-64
2022/08/19 06:24:55;;;;;;;30.17;24.05;;;22.00;99.90;;;;;;5118082;27;20054;-64
2022/08/19 06:27:23;;;;;;;34.15;27.65;;;21.90;99.90;;;;;;5120648;27;20144;-64
2022/08/19 06:29:50;;;;;;;34.95;27.25;;;21.90;99.90;;;;;;5122068;27;20061;-64
2022/08/19 06:32:21;;;;;;;34.40;25.42;;;21.80;99.90;;;;;;5122788;27;20513;-64
2022/08/19 06:34:48;;;;;;;33.88;26.92;;;21.80;99.90;;;;;;5107325;28;20051;-64
2022/08/19 06:37:15;;;;;;;36.28;27.75;;;21.90;99.90;;;;;;5108071;27;20447;-65
2022/08/19 06:39:44;;;;;;;25.02;20.70;;;22.10;99.90;;;;;;5113604;27;20049;-65
2022/08/19 06:42:13;;;;;;;24.23;20.85;;;22.10;99.90;;;;;;5123424;27;20051;-65
2022/08/19 06:44:43;;;;;;;27.40;22.42;;;22.30;99.90;;;;;;5128895;27;20042;-64
2022/08/19 06:47:18;;;;;;;28.73;24.08;;;22.40;99.90;;;;;;5110393;27;20490;-65
2022/08/19 06:49:55;;;;;;;26.45;21.77;;;22.40;99.90;;;;;;5101120;27;20035;-64
2022/08/19 06:52:27;;;;;;;25.73;21.10;;;22.40;99.90;;;;;;5113475;27;20058;-64
2022/08/19 06:54:57;;;;;;;24.15;21.08;;;22.40;99.90;;;;;;5110960;28;20054;-64
2022/08/19 06:57:26;;;;;;;26.92;22.23;;;22.60;99.90;;;;;;5104291;27;20252;-64
2022/08/19 06:59:56;;;;;;;23.23;20.55;;;22.40;99.90;;;;;;5113855;27;20071;-64
2022/08/19 07:02:26;;;;;;;21.05;17.75;;;22.50;99.90;;;;;;5103070;27;20051;-64
2022/08/19 07:04:53;;;;;;;17.83;15.75;;;22.40;99.90;;;;;;5104092;27;20109;-64
2022/08/19 07:07:22;;;;;;;17.50;15.02;;;22.60;99.90;;;;;;5107072;27;20092;-64
2022/08/19 07:09:52;;;;;;;17.13;14.80;;;22.70;99.90;;;;;;5122665;27;20462;-64
2022/08/19 07:12:34;;;;;;;20.08;17.27;;;22.90;99.90;;;;;;5115957;28;20047;-64
2022/08/19 07:15:06;;;;;;;20.10;18.00;;;23.20;99.90;;;;;;5109448;28;20113;-64
2022/08/19 07:17:37;;;;;;;20.85;18.52;;;23.30;99.90;;;;;;5109275;28;20043;-64
2022/08/19 07:20:07;;;;;;;22.30;18.08;;;23.30;99.90;;;;;;5112090;28;20112;-64
2022/08/19 07:22:40;;;;;;;22.15;17.58;;;23.30;99.90;;;;;;5116343;28;20512;-64
2022/08/19 07:25:09;;;;;;;20.42;17.73;;;23.20;99.90;;;;;;5111123;28;20039;-64
2022/08/19 07:27:37;;;;;;;22.88;17.17;;;22.90;99.90;;;;;;5123058;27;20077;-64
2022/08/19 07:30:08;;;;;;;20.90;16.98;;;22.90;99.90;;;;;;5122392;28;20058;-64
2022/08/19 07:32:39;;;;;;;18.92;16.45;;;22.70;99.90;;;;;;5103913;28;20532;-65
2022/08/19 07:35:07;;;;;;;20.35;17.58;;;22.70;99.90;;;;;;5115150;28;20130;-65
2022/08/19 07:37:36;;;;;;;18.65;16.67;;;22.60;99.90;;;;;;5115752;28;20073;-64
2022/08/19 07:40:07;;;;;;;20.08;16.98;;;22.50;99.90;;;;;;5110511;28;20050;-65
2022/08/19 07:42:34;;;;;;;19.88;17.17;;;22.30;99.90;;;;;;5094638;28;20424;-65
2022/08/19 07:45:03;;;;;;;19.25;16.80;;;22.20;99.90;;;;;;5101114;28;20041;-65
2022/08/19 07:47:30;;;;;;;19.42;17.27;;;22.10;99.90;;;;;;5111799;28;20508;-64
2022/08/19 07:50:19;;;;;;;19.58;17.48;;;21.90;99.90;;;;;;5098613;28;20039;-65
2022/08/19 07:52:49;;;;;;;22.13;17.63;;;21.90;99.90;;;;;;5105904;27;20036;-65
2022/08/19 07:55:20;;;;;;;19.52;17.42;;;21.80;99.90;;;;;;5111647;27;20104;-64
2022/08/19 07:58:08;;;;;;;21.17;17.48;;;21.90;99.90;;;;;;5108339;27;20496;-64
2022/08/19 08:00:35;;;;;;;22.65;18.27;;;21.90;99.90;;;;;;5115110;27;20066;-65
2022/08/19 08:03:03;;;;;;;19.73;17.50;;;21.90;99.90;;;;;;5124325;27;20126;-64
2022/08/19 08:11:02;;;;;;;22.50;17.98;;;22.30;99.90;;;;;;5107114;27;20465;-64
2022/08/19 08:13:35;;;;;;;20.65;17.40;;;22.40;99.90;;;;;;5116067;27;20501;-64
2022/08/19 08:16:06;;;;;;;22.00;18.67;;;22.60;99.90;;;;;;5107133;27;20131;-64
2022/08/19 08:18:42;;;;;;;19.90;17.75;;;22.80;99.90;;;;;;5115260;27;20126;-64
2022/08/19 08:21:16;;;;;;;19.83;17.05;;;22.90;99.90;;;;;;5108377;27;20044;-64
2022/08/19 08:23:44;;;;;;;21.50;18.30;;;23.10;99.90;;;;;;5115245;27;20039;-65
2022/08/19 08:26:12;;;;;;;23.48;19.25;;;23.00;99.90;;;;;;5118632;27;20044;-64
2022/08/19 08:28:41;;;;;;;21.88;19.27;;;23.00;99.90;;;;;;5122264;27;20473;-65
2022/08/19 08:31:15;;;;;;;25.00;19.80;;;22.90;99.90;;;;;;5120855;27;20154;-66
2022/08/19 08:33:42;;;;;;;24.85;19.40;;;22.70;99.90;;;;;;5112270;27;20142;-65
2022/08/19 08:36:13;;;;;;;24.73;19.98;;;22.70;99.90;;;;;;5110588;28;20420;-65
2022/08/19 08:38:45;;;;;;;31.67;25.52;;;22.80;99.90;;;;;;5114358;27;20044;-65
2022/08/19 08:41:14;;;;;;;;;;;22.60;99.90;;;;;;5115919;27;20473;-65
2022/08/19 08:43:45;;;;;;;33.30;25.77;;;22.30;99.90;;;;;;5110879;27;20379;-65
2022/08/19 08:46:16;;;;;;;;;;;22.20;99.90;;;;;;5122854;27;20116;-64
2022/08/19 08:49:24;;;;;;;34.50;25.98;;;22.00;99.90;;;;;;5119896;27;19949;-66
2022/08/19 08:52:04;;;;;;;32.45;25.17;;;21.70;99.90;;;;;;5108416;28;20528;-66
2022/08/19 08:54:39;;;;;;;37.65;27.70;;;21.50;99.90;;;;;;5109482;27;20047;-65
2022/08/19 08:57:40;;;;;;;37.05;26.75;;;21.40;99.90;;;;;;5111946;27;20051;-66
2022/08/19 09:00:16;;;;;;;36.38;27.30;;;21.50;99.90;;;;;;5103067;27;20043;-65
2022/08/19 09:02:44;;;;;;;32.70;27.73;;;21.30;99.90;;;;;;5119962;27;20489;-65
2022/08/19 09:05:20;;;;;;;37.50;27.75;;;21.30;99.90;;;;;;5103188;27;20043;-65
2022/08/19 09:07:57;;;;;;;35.95;26.20;;;21.40;99.90;;;;;;5116703;27;20039;-65
2022/08/19 09:10:39;;;;;;;36.22;27.10;;;21.40;99.90;;;;;;5116775;27;20074;-65
2022/08/19 09:13:31;;;;;;;40.60;26.48;;;21.30;99.90;;;;;;5115719;27;20500;-66
2022/08/19 09:16:09;;;;;;;35.45;26.92;;;21.20;99.90;;;;;;5111494;27;20047;-66
2022/08/19 09:18:52;;;;;;;35.80;25.38;;;21.20;99.90;;;;;;5120641;27;20096;-66
2022/08/19 09:21:22;;;;;;;34.25;25.30;;;21.20;99.90;;;;;;5120772;27;20039;-65
2022/08/19 09:23:58;;;;;;;33.70;25.08;;;21.30;99.90;;;;;;5101834;27;20047;-65
2022/08/19 09:26:26;;;;;;;33.45;24.92;;;21.20;99.90;;;;;;5113526;27;20043;-65
2022/08/19 09:29:13;;;;;;;32.00;24.15;;;21.30;99.90;;;;;;5111332;27;20071;-65
2022/08/19 09:31:41;;;;;;;31.25;24.58;;;21.30;99.90;;;;;;5096263;27;20403;-64
2022/08/19 09:34:08;;;;;;;29.95;23.45;;;21.30;99.90;;;;;;5110624;27;20539;-65
2022/08/19 09:36:52;;;;;;;31.70;25.05;;;21.20;99.90;;;;;;5109212;27;20498;-65
2022/08/19 09:39:21;;;;;;;31.30;24.67;;;21.30;99.90;;;;;;5106271;27;20074;-66
2022/08/19 09:41:49;;;;;;;29.92;23.27;;;21.20;99.90;;;;;;5106763;27;20036;-66
2022/08/19 09:44:17;;;;;;;28.58;21.70;;;21.20;99.90;;;;;;5108968;27;20067;-64
2022/08/19 09:46:46;;;;;;;32.15;22.88;;;21.30;99.90;;;;;;5106859;27;20061;-65
2022/08/19 09:49:17;;;;;;;33.30;24.45;;;21.20;99.90;;;;;;5119232;27;20569;-65
2022/08/19 09:51:48;;;;;;;31.67;24.42;;;21.30;99.90;;;;;;5114465;27;20040;-65
2022/08/19 09:54:18;;;;;;;33.45;26.30;;;21.10;99.90;;;;;;5115290;27;20138;-65
2022/08/19 09:56:55;;;;;;;32.13;24.65;;;21.30;99.90;;;;;;5108812;28;20060;-65
2022/08/19 09:59:23;;;;;;;30.42;23.08;;;21.50;99.90;;;;;;5106661;27;20515;-66
2022/08/19 10:01:51;;;;;;;33.25;24.50;;;21.70;99.90;;;;;;5102694;27;20143;-66
2022/08/19 10:04:20;;;;;;;31.40;22.67;;;21.70;99.90;;;;;;5114365;27;20050;-66
2022/08/19 10:06:51;;;;;;;31.50;23.42;;;21.80;99.90;;;;;;5118372;27;20063;-66
2022/08/19 10:09:22;;;;;;;35.58;24.85;;;21.90;99.90;;;;;;5121546;27;20062;-65
2022/08/19 10:12:00;;;;;;;31.67;24.63;;;21.90;99.90;;;;;;5128212;27;20035;-65
2022/08/19 10:14:29;;;;;;;32.97;25.38;;;21.90;99.90;;;;;;5124415;27;20039;-66
2022/08/19 10:16:57;;;;;;;34.20;24.75;;;21.90;99.90;;;;;;5100293;27;20051;-65
2022/08/19 10:19:25;;;;;;;32.38;24.95;;;21.90;99.90;;;;;;5107316;27;20126;-65
2022/08/19 10:21:54;;;;;;;31.05;23.33;;;21.90;99.90;;;;;;5111593;27;20581;-66
2022/08/19 10:24:27;;;;;;;32.53;23.90;;;21.80;99.90;;;;;;5115265;27;20514;-65
2022/08/19 10:26:55;;;;;;;33.03;24.48;;;21.60;99.90;;;;;;5106359;27;20036;-65
2022/08/19 10:29:30;;;;;;;31.15;24.13;;;21.60;99.90;;;;;;5096324;28;20048;-66
2022/08/19 10:32:05;;;;;;;29.25;22.80;;;21.60;99.90;;;;;;5119103;27;20402;-65
2022/08/19 10:34:37;;;;;;;28.60;21.98;;;21.60;99.90;;;;;;5123843;27;20057;-65
2022/08/19 10:37:17;;;;;;;29.83;23.67;;;21.60;99.90;;;;;;5105179;27;20044;-65
2022/08/19 10:39:52;;;;;;;31.48;24.13;;;21.60;99.90;;;;;;5100803;28;20035;-66
2022/08/19 10:42:20;;;;;;;29.00;23.02;;;21.60;99.90;;;;;;5112525;27;20084;-64
2022/08/19 10:44:47;;;;;;;27.25;22.05;;;21.60;99.90;;;;;;5108279;27;20758;-65
2022/08/19 10:47:18;;;;;;;32.47;23.42;;;21.70;99.90;;;;;;5115200;27;20047;-65
2022/08/19 10:52:45;;;;;;;30.13;23.63;;;21.50;99.90;;;;;;5119583;27;20055;-65
2022/08/19 10:58:14;;;;;;;32.60;23.58;;;21.60;99.90;;;;;;5110794;27;20100;-66
2022/08/19 11:00:43;;;;;;;27.85;22.70;;;21.60;99.90;;;;;;5121074;27;20664;-66
2022/08/19 11:03:10;;;;;;;29.05;23.60;;;21.60;99.90;;;;;;5118021;27;20501;-66
2022/08/19 11:05:38;;;;;;;26.05;21.75;;;21.60;99.90;;;;;;5090811;28;20063;-66
2022/08/19 11:08:11;;;;;;;27.98;22.13;;;21.60;99.90;;;;;;5114314;27;20078;-66
2022/08/19 11:10:57;;;;;;;27.95;22.65;;;21.70;99.90;;;;;;5119482;27;20050;-66
2022/08/19 11:13:24;;;;;;;27.65;21.45;;;21.70;99.90;;;;;;5123625;27;20126;-65
2022/08/19 11:16:07;;;;;;;28.25;22.17;;;21.70;99.90;;;;;;5109892;28;20216;-65
2022/08/19 11:18:40;;;;;;;24.45;20.33;;;21.80;99.90;;;;;;5112985;28;20510;-65
2022/08/19 11:21:11;;;;;;;27.40;20.60;;;21.80;99.90;;;;;;5102506;28;20584;-66
2022/08/19 11:23:39;;;;;;;25.42;20.13;;;21.80;99.90;;;;;;5111679;27;20129;-66
2022/08/19 11:26:07;;;;;;;24.70;21.65;;;21.80;99.90;;;;;;5103226;28;20075;-66
2022/08/19 11:28:34;;;;;;;25.40;20.40;;;21.90;99.90;;;;;;5113141;27;20039;-66
2022/08/19 11:31:03;;;;;;;23.73;19.55;;;21.90;99.90;;;;;;5115838;27;20071;-66
2022/08/19 11:33:32;;;;;;;29.20;22.05;;;21.90;99.90;;;;;;5115103;27;20043;-66
2022/08/19 11:36:01;;;;;;;27.98;20.27;;;21.90;99.90;;;;;;5123273;27;20050;-66
2022/08/19 11:38:29;;;;;;;26.27;21.15;;;21.90;99.90;;;;;;5111466;27;20111;-66
2022/08/19 11:41:03;;;;;;;24.15;20.38;;;21.90;99.90;;;;;;5113343;27;20042;-66
2022/08/19 11:43:31;;;;;;;22.50;18.90;;;21.90;99.90;;;;;;5121478;27;20055;-66
2022/08/19 11:46:09;;;;;;;22.10;19.40;;;21.90;99.90;;;;;;5112169;27;20577;-65
2022/08/19 11:48:37;;;;;;;24.17;20.45;;;21.90;99.90;;;;;;5103438;27;20448;-65
2022/08/19 11:51:10;;;;;;;27.00;21.38;;;21.90;99.90;;;;;;5111359;27;20563;-65
2022/08/19 11:53:38;;;;;;;24.50;21.15;;;21.70;99.90;;;;;;5115418;27;20105;-64
2022/08/19 11:56:07;;;;;;;25.38;20.77;;;21.70;99.90;;;;;;5126741;27;20038;-65
2022/08/19 11:58:35;;;;;;;27.30;21.95;;;21.60;99.90;;;;;;5128075;27;20077;-65
2022/08/19 12:01:11;;;;;;;23.90;20.50;;;21.50;99.90;;;;;;5122234;27;20126;-65
2022/08/19 12:03:39;;;;;;;24.35;21.63;;;21.50;99.90;;;;;;5130357;27;20378;-65
2022/08/19 12:06:08;;;;;;;26.45;20.13;;;21.50;99.90;;;;;;5098279;27;20043;-64
2022/08/19 12:08:36;;;;;;;26.25;20.85;;;21.50;99.90;;;;;;5130668;27;20062;-65
2022/08/19 12:11:04;;;;;;;26.85;20.90;;;21.50;99.90;;;;;;5123745;27;21750;-64
2022/08/19 12:13:31;;;;;;;22.70;19.85;;;21.50;99.90;;;;;;5131255;27;20126;-65
2022/08/19 12:15:59;;;;;;;24.95;21.23;;;21.50;99.90;;;;;;5112211;27;20455;-64
2022/08/19 12:18:27;;;;;;;26.85;20.95;;;21.60;99.90;;;;;;5112783;27;20077;-65
2022/08/19 12:20:54;;;;;;;24.15;21.10;;;21.50;99.90;;;;;;5115999;27;20560;-66
2022/08/19 12:23:23;;;;;;;25.77;19.23;;;21.60;99.90;;;;;;5114257;27;20469;-65
2022/08/19 12:25:51;;;;;;;25.25;21.08;;;21.50;99.90;;;;;;5121679;27;20074;-65
2022/08/19 12:28:21;;;;;;;24.08;20.90;;;21.50;99.90;;;;;;5128169;27;20451;-65
2022/08/19 12:30:50;;;;;;;26.50;21.52;;;21.50;99.90;;;;;;5130089;27;20047;-65
2022/08/19 12:33:23;;;;;;;26.05;20.80;;;21.40;99.90;;;;;;5117514;27;20048;-65
2022/08/19 12:35:51;;;;;;;21.35;19.10;;;21.40;99.90;;;;;;5101906;27;20071;-64
2022/08/19 12:38:19;;;;;;;26.88;21.98;;;21.30;99.90;;;;;;5113687;27;20101;-66
2022/08/19 12:40:48;;;;;;;26.10;22.88;;;21.20;99.90;;;;;;5114438;27;20503;-64
2022/08/19 12:43:15;;;;;;;26.13;21.98;;;21.20;99.90;;;;;;5101831;27;20413;-63
2022/08/19 12:45:43;;;;;;;25.42;22.20;;;21.10;99.90;;;;;;5119595;27;20043;-65
2022/08/19 12:48:14;;;;;;;25.42;21.15;;;21.10;99.90;;;;;;5120759;27;20035;-65
2022/08/19 12:51:07;;;;;;;24.85;21.92;;;21.10;99.90;;;;;;5122549;27;20047;-65
2022/08/19 12:53:35;;;;;;;29.25;23.85;;;21.10;99.90;;;;;;5118729;27;20553;-65
2022/08/19 12:56:07;;;;;;;27.43;22.97;;;21.00;99.90;;;;;;5126202;27;20058;-65
2022/08/19 12:58:41;;;;;;;32.30;24.63;;;21.10;99.90;;;;;;5124271;27;20476;-65
2022/08/19 13:01:20;;;;;;;30.95;25.25;;;21.00;99.90;;;;;;5102433;27;20492;-63
2022/08/19 13:03:52;;;;;;;32.50;25.83;;;20.90;99.90;;;;;;5129427;27;20142;-66
2022/08/19 13:06:20;;;;;;;30.13;24.98;;;20.80;99.90;;;;;;5106589;27;20045;-67